createdAt,value
2023-09-02T00:02:21.388Z,100.00
2023-09-02T00:04:49.746Z,100.00
2023-09-02T00:07:17.830Z,100.00
2023-09-02T00:09:45.938Z,100.00
2023-09-02T00:12:14.481Z,100.00
2023-09-02T00:14:42.832Z,100.00
2023-09-02T00:17:12.433Z,100.00
2023-09-02T00:19:41.635Z,100.00
2023-09-02T00:22:09.978Z,100.00
2023-09-02T00:24:38.058Z,100.00
2023-09-02T00:27:06.946Z,100.00
2023-09-02T00:29:35.027Z,100.00
2023-09-02T00:32:02.767Z,100.00
2023-09-02T00:34:31.377Z,100.00
2023-09-02T00:37:01.398Z,100.00
2023-09-02T00:39:29.726Z,100.00
2023-09-02T00:41:59.167Z,100.00
2023-09-02T00:44:28.444Z,100.00
2023-09-02T00:46:59.560Z,100.00
2023-09-02T00:49:28.013Z,100.00
2023-09-02T00:51:56.025Z,100.00
2023-09-02T00:54:24.165Z,100.00
2023-09-02T00:56:53.274Z,100.00
2023-09-02T00:59:22.429Z,100.00
2023-09-02T01:01:51.070Z,100.00
2023-09-02T01:04:19.562Z,100.00
2023-09-02T01:06:50.579Z,100.00
2023-09-02T01:09:18.676Z,100.00
2023-09-02T01:11:46.939Z,100.00
2023-09-02T01:14:16.005Z,100.00
2023-09-02T01:16:43.646Z,100.00
2023-09-02T01:19:14.661Z,100.00
2023-09-02T01:22:14.772Z,100.00
2023-09-02T01:25:13.674Z,100.00
2023-09-02T01:27:46.025Z,100.00
2023-09-02T01:30:18.508Z,100.00
2023-09-02T01:32:50.683Z,100.00
2023-09-02T01:35:23.615Z,100.00
2023-09-02T01:37:57.536Z,100.00
2023-09-02T01:40:26.942Z,100.00
2023-09-02T01:42:57.736Z,100.00
2023-09-02T01:45:32.390Z,100.00
2023-09-02T01:48:01.061Z,100.00
2023-09-02T01:50:33.666Z,100.00
2023-09-02T01:53:02.083Z,100.00
2023-09-02T01:55:30.529Z,100.00
2023-09-02T01:57:59.541Z,100.00
2023-09-02T02:00:27.672Z,100.00
2023-09-02T02:02:56.261Z,100.00
2023-09-02T02:05:35.140Z,100.00
2023-09-02T02:08:08.603Z,100.00
2023-09-02T02:10:37.783Z,100.00
2023-09-02T02:13:07.955Z,100.00
2023-09-02T02:15:35.955Z,100.00
2023-09-02T02:18:04.277Z,100.00
2023-09-02T02:20:56.686Z,100.00
2023-09-02T02:23:24.908Z,100.00
2023-09-02T02:25:53.003Z,100.00
2023-09-02T02:28:20.975Z,100.00
2023-09-02T02:30:49.190Z,100.00
2023-09-02T02:33:17.412Z,100.00
2023-09-02T02:35:45.664Z,100.00
2023-09-02T02:38:13.805Z,100.00
2023-09-02T02:40:42.097Z,100.00
2023-09-02T02:43:10.594Z,100.00
2023-09-02T02:45:38.482Z,100.00
2023-09-02T02:48:16.930Z,100.00
2023-09-02T02:50:45.155Z,100.00
2023-09-02T02:53:13.621Z,100.00
2023-09-02T02:55:43.304Z,100.00
2023-09-02T02:58:13.704Z,100.00
2023-09-02T03:00:41.952Z,100.00
2023-09-02T03:03:11.507Z,100.00
2023-09-02T03:05:44.015Z,100.00
2023-09-02T03:08:11.933Z,100.00
2023-09-02T03:10:40.179Z,100.00
2023-09-02T03:13:08.122Z,100.00
2023-09-02T03:15:36.173Z,100.00
2023-09-02T03:18:04.537Z,100.00
2023-09-02T03:20:34.118Z,100.00
2023-09-02T03:23:06.928Z,100.00
2023-09-02T03:25:36.078Z,100.00
2023-09-02T03:28:04.046Z,100.00
2023-09-02T03:30:32.466Z,100.00
2023-09-02T03:33:01.380Z,100.00
2023-09-02T03:35:29.576Z,100.00
2023-09-02T03:37:57.777Z,100.00
2023-09-02T03:40:25.903Z,100.00
2023-09-02T03:42:54.766Z,100.00
2023-09-02T03:45:23.320Z,100.00
2023-09-02T03:47:51.623Z,100.00
2023-09-02T03:50:27.898Z,96.81
2023-09-02T03:52:55.779Z,91.07
2023-09-02T03:55:23.330Z,90.26
2023-09-02T03:57:51.047Z,84.56
2023-09-02T04:00:19.838Z,84.01
2023-09-02T04:02:48.243Z,84.12
2023-09-02T04:05:16.248Z,81.66
2023-09-02T04:07:44.662Z,79.02
2023-09-02T04:10:12.807Z,76.06
2023-09-02T04:12:40.820Z,72.58
2023-09-02T04:15:10.171Z,70.82
2023-09-02T04:17:38.204Z,64.71
2023-09-02T04:20:06.830Z,56.28
2023-09-02T04:22:34.972Z,52.04
2023-09-02T04:25:02.401Z,48.67
2023-09-02T04:27:30.486Z,46.24
2023-09-02T04:29:59.075Z,43.89
2023-09-02T04:32:27.444Z,42.13
2023-09-02T04:34:55.940Z,41.33
2023-09-02T04:37:23.783Z,42.10
2023-09-02T04:39:52.951Z,40.62
2023-09-02T04:44:52.037Z,37.24
2023-09-02T04:47:20.585Z,40.01
2023-09-02T04:49:48.899Z,37.73
2023-09-02T04:52:17.184Z,36.97
2023-09-02T04:54:46.679Z,37.72
2023-09-02T04:57:15.391Z,37.98
2023-09-02T04:59:44.473Z,36.83
2023-09-02T05:02:12.579Z,35.53
2023-09-02T05:04:40.846Z,34.59
2023-09-02T05:07:09.398Z,35.21
2023-09-02T05:09:37.559Z,36.06
2023-09-02T05:12:06.043Z,36.56
2023-09-02T05:14:34.222Z,37.46
2023-09-02T05:17:02.137Z,37.70
2023-09-02T05:19:29.857Z,37.13
2023-09-02T05:21:58.833Z,36.55
2023-09-02T05:24:26.900Z,34.86
2023-09-02T05:26:54.920Z,35.71
2023-09-02T05:29:22.789Z,36.38
2023-09-02T05:31:50.968Z,36.17
2023-09-02T05:34:19.282Z,36.12
2023-09-02T05:36:50.098Z,36.96
2023-09-02T05:39:18.501Z,37.52
2023-09-02T05:41:47.064Z,37.76
2023-09-02T05:44:15.109Z,35.70
2023-09-02T05:46:43.709Z,35.56
2023-09-02T05:49:13.249Z,36.87
2023-09-02T05:51:41.802Z,37.62
2023-09-02T05:54:10.950Z,39.23
2023-09-02T05:56:39.041Z,38.75
2023-09-02T05:59:07.367Z,37.89
2023-09-02T06:01:35.502Z,37.25
2023-09-02T06:04:04.073Z,35.76
2023-09-02T06:06:33.935Z,35.54
2023-09-02T06:09:02.323Z,35.53
2023-09-02T06:11:32.502Z,37.30
2023-09-02T06:14:00.129Z,36.62
2023-09-02T06:19:13.068Z,35.61
2023-09-02T06:21:41.132Z,35.18
2023-09-02T06:24:09.174Z,36.21
2023-09-02T06:26:37.079Z,44.63
2023-09-02T06:29:05.357Z,53.42
2023-09-02T06:31:34.577Z,62.18
2023-09-02T06:34:07.374Z,67.54
2023-09-02T06:36:38.013Z,74.37
2023-09-02T06:39:08.844Z,76.26
2023-09-02T06:41:36.826Z,79.96
2023-09-02T06:44:05.218Z,81.76
2023-09-02T06:46:35.333Z,85.00
2023-09-02T06:49:06.831Z,84.07
2023-09-02T06:51:35.201Z,83.72
2023-09-02T06:54:03.194Z,84.73
2023-09-02T06:56:31.456Z,84.21
2023-09-02T06:58:59.504Z,85.07
2023-09-02T07:01:28.311Z,86.76
2023-09-02T07:03:58.216Z,86.96
2023-09-02T07:06:26.503Z,84.99
2023-09-02T07:08:54.917Z,83.78
2023-09-02T07:11:22.996Z,84.20
2023-09-02T07:13:50.927Z,87.10
2023-09-02T07:16:19.045Z,86.33
2023-09-02T07:18:47.145Z,84.74
2023-09-02T07:21:15.752Z,85.20
2023-09-02T07:23:46.718Z,85.28
2023-09-02T07:26:14.780Z,82.28
2023-09-02T07:28:44.065Z,80.14
2023-09-02T07:31:11.936Z,81.00
2023-09-02T07:33:40.746Z,78.46
2023-09-02T07:36:13.247Z,78.91
2023-09-02T07:38:44.696Z,78.80
2023-09-02T07:41:13.033Z,77.92
2023-09-02T07:43:41.383Z,77.60
2023-09-02T07:46:24.211Z,76.90
2023-09-02T07:48:52.675Z,74.49
2023-09-02T07:51:20.619Z,73.01
2023-09-02T07:53:48.602Z,72.98
2023-09-02T07:56:16.733Z,73.14
2023-09-02T07:58:48.189Z,73.65
2023-09-02T08:01:17.411Z,73.38
2023-09-02T08:03:45.713Z,74.04
2023-09-02T08:06:13.882Z,74.70
2023-09-02T08:08:41.609Z,72.37
2023-09-02T08:11:09.658Z,72.39
2023-09-02T08:13:37.646Z,72.84
2023-09-02T08:16:06.908Z,70.46
2023-09-02T08:18:35.769Z,68.20
2023-09-02T08:21:12.338Z,68.71
2023-09-02T08:23:40.785Z,70.90
2023-09-02T08:26:14.658Z,71.06
2023-09-02T08:28:43.277Z,68.79
2023-09-02T08:31:13.303Z,66.29
2023-09-02T08:33:41.648Z,67.19
2023-09-02T08:36:19.734Z,67.30
2023-09-02T08:38:48.994Z,67.83
2023-09-02T08:41:32.409Z,65.36
2023-09-02T08:44:28.827Z,65.51
2023-09-02T08:46:57.828Z,64.33
2023-09-02T08:49:26.291Z,62.94
2023-09-02T08:51:54.643Z,63.82
2023-09-02T08:54:23.655Z,64.60
2023-09-02T08:56:55.882Z,66.84
2023-09-02T08:59:24.113Z,66.34
2023-09-02T09:01:52.380Z,63.76
2023-09-02T09:04:20.856Z,62.30
2023-09-02T09:06:49.162Z,62.39
2023-09-02T09:09:18.426Z,59.18
2023-09-02T09:11:46.663Z,61.46
2023-09-02T09:14:24.769Z,60.64
2023-09-02T09:16:55.542Z,59.68
2023-09-02T09:19:24.848Z,59.54
2023-09-02T09:21:53.395Z,58.39
2023-09-02T09:24:21.821Z,58.82
2023-09-02T09:26:50.942Z,59.54
2023-09-02T09:29:22.620Z,60.61
2023-09-02T09:31:50.912Z,59.81
2023-09-02T09:34:19.330Z,56.68
2023-09-02T09:36:58.280Z,55.65
2023-09-02T09:39:42.754Z,55.66
2023-09-02T09:42:15.645Z,56.28
2023-09-02T09:45:07.260Z,53.81
2023-09-02T09:47:37.933Z,52.87
2023-09-02T09:50:14.582Z,53.88
2023-09-02T09:52:59.777Z,52.54
2023-09-02T09:55:28.405Z,51.09
2023-09-02T09:57:57.554Z,52.00
2023-09-02T10:00:27.265Z,51.72
2023-09-02T10:03:03.949Z,51.62
2023-09-02T10:05:42.607Z,51.36
2023-09-02T10:08:12.168Z,50.28
2023-09-02T10:10:41.803Z,49.69
2023-09-02T10:13:10.265Z,48.75
2023-09-02T10:15:38.418Z,47.67
2023-09-02T10:18:06.638Z,48.09
2023-09-02T10:20:36.844Z,48.36
2023-09-02T10:23:12.679Z,48.69
2023-09-02T10:26:01.864Z,48.19
2023-09-02T10:28:39.028Z,48.82
2023-09-02T10:31:23.695Z,48.11
2023-09-02T10:34:06.457Z,48.58
2023-09-02T10:36:35.250Z,49.25
2023-09-02T10:39:05.582Z,49.40
2023-09-02T10:41:34.163Z,49.92
2023-09-02T10:44:02.878Z,49.50
2023-09-02T10:46:31.188Z,48.77
2023-09-02T10:49:00.689Z,49.32
2023-09-02T10:51:30.439Z,50.63
2023-09-02T10:53:59.501Z,50.64
2023-09-02T10:56:35.160Z,49.19
2023-09-02T10:59:07.556Z,47.30
2023-09-02T11:01:46.402Z,47.47
2023-09-02T11:04:15.138Z,47.07
2023-09-02T11:07:26.327Z,46.77
2023-09-02T11:09:56.196Z,47.50
2023-09-02T11:12:26.713Z,47.08
2023-09-02T11:15:09.666Z,46.78
2023-09-02T11:17:39.755Z,47.00
2023-09-02T11:20:10.129Z,46.02
2023-09-02T11:23:06.588Z,46.42
2023-09-02T11:25:44.219Z,46.58
2023-09-02T11:28:21.532Z,44.31
2023-09-02T11:31:06.434Z,44.76
2023-09-02T11:33:36.200Z,45.27
2023-09-02T11:36:08.313Z,45.00
2023-09-02T11:38:36.566Z,45.19
2023-09-02T11:41:04.626Z,45.94
2023-09-02T11:43:34.195Z,45.10
2023-09-02T11:46:04.388Z,44.15
2023-09-02T11:48:32.657Z,44.69
2023-09-02T11:51:00.997Z,44.26
2023-09-02T11:53:30.515Z,46.12
2023-09-02T11:55:59.038Z,46.79
2023-09-02T11:58:27.563Z,47.08
2023-09-02T12:00:55.856Z,46.25
2023-09-02T12:03:26.700Z,44.89
2023-09-02T12:05:56.942Z,44.58
2023-09-02T12:08:25.495Z,44.87
2023-09-02T12:10:54.975Z,44.86
2023-09-02T12:13:23.656Z,43.90
2023-09-02T12:15:53.171Z,44.54
2023-09-02T12:18:22.538Z,44.70
2023-09-02T12:20:51.877Z,44.91
2023-09-02T12:23:20.571Z,45.32
2023-09-02T12:26:11.435Z,43.79
2023-09-02T12:28:50.135Z,42.49
2023-09-02T12:31:18.963Z,43.35
2023-09-02T12:33:55.636Z,43.75
2023-09-02T12:36:33.912Z,43.48
2023-09-02T12:39:01.664Z,43.21
2023-09-02T12:41:43.075Z,42.78
2023-09-02T12:44:16.740Z,41.73
2023-09-02T12:46:45.081Z,41.37
2023-09-02T12:49:14.997Z,41.25
2023-09-02T12:51:44.556Z,41.28
2023-09-02T12:54:15.116Z,40.78
2023-09-02T12:56:43.410Z,41.05
2023-09-02T12:59:11.787Z,41.13
2023-09-02T13:01:41.020Z,40.87
2023-09-02T13:04:09.097Z,41.26
2023-09-02T13:06:37.201Z,42.30
2023-09-02T13:09:07.162Z,42.21
2023-09-02T13:11:35.428Z,42.02
2023-09-02T13:14:03.333Z,42.20
2023-09-02T13:16:31.203Z,42.43
2023-09-02T13:18:59.435Z,41.55
2023-09-02T13:21:27.756Z,41.05
2023-09-02T13:23:55.869Z,41.22
2023-09-02T13:26:25.983Z,41.25
2023-09-02T13:28:54.761Z,40.89
2023-09-02T13:31:24.188Z,40.87
2023-09-02T13:33:52.346Z,40.45
2023-09-02T13:36:20.349Z,40.17
2023-09-02T13:39:00.680Z,40.33
2023-09-02T13:41:28.805Z,40.67
2023-09-02T13:43:57.298Z,41.17
2023-09-02T13:46:25.511Z,41.18
2023-09-02T13:48:53.323Z,40.99
2023-09-02T13:51:23.771Z,41.62
2023-09-02T13:53:53.788Z,41.61
2023-09-02T13:56:22.310Z,41.75
2023-09-02T13:58:52.673Z,41.28
2023-09-02T14:01:20.763Z,41.43
2023-09-02T14:03:50.329Z,39.88
2023-09-02T14:06:18.796Z,39.20
2023-09-02T14:08:48.563Z,38.93
2023-09-02T14:11:19.081Z,39.34
2023-09-02T14:13:50.471Z,38.96
2023-09-02T14:16:18.815Z,39.06
2023-09-02T14:18:48.839Z,39.07
2023-09-02T14:21:17.282Z,38.90
2023-09-02T14:23:45.746Z,39.19
2023-09-02T14:26:17.068Z,39.47
2023-09-02T14:28:46.921Z,39.37
2023-09-02T14:31:15.550Z,39.59
2023-09-02T14:33:46.468Z,38.64
2023-09-02T14:36:39.345Z,39.08
2023-09-02T14:39:07.459Z,39.58
2023-09-02T14:41:36.072Z,39.24
2023-09-02T14:44:04.581Z,39.48
2023-09-02T14:46:35.980Z,38.77
2023-09-02T14:49:04.669Z,38.48
2023-09-02T14:51:33.270Z,38.70
2023-09-02T14:54:06.010Z,38.36
2023-09-02T14:56:44.496Z,37.15
2023-09-02T14:59:14.551Z,37.39
2023-09-02T15:01:44.380Z,37.81
2023-09-02T15:04:12.515Z,37.99
2023-09-02T15:06:42.357Z,38.45
2023-09-02T15:09:11.957Z,38.42
2023-09-02T15:11:41.905Z,37.81
2023-09-02T15:14:11.036Z,37.73
2023-09-02T15:16:40.006Z,38.16
2023-09-02T15:19:12.813Z,38.42
2023-09-02T15:21:40.707Z,38.74
2023-09-02T15:24:09.630Z,38.58
2023-09-02T15:26:40.167Z,38.44
2023-09-02T15:29:14.411Z,38.76
2023-09-02T15:31:47.411Z,39.12
2023-09-02T15:34:17.861Z,39.25
2023-09-02T15:36:49.536Z,39.13
2023-09-02T15:39:25.905Z,39.09
2023-09-02T15:41:57.791Z,39.29
2023-09-02T15:44:25.950Z,39.49
2023-09-02T15:46:54.901Z,39.96
2023-09-02T15:49:25.985Z,40.23
2023-09-02T15:51:54.871Z,40.65
2023-09-02T15:54:23.109Z,41.58
2023-09-02T15:56:51.056Z,41.59
2023-09-02T15:59:19.330Z,41.71
2023-09-02T16:01:47.631Z,41.96
2023-09-02T16:04:17.052Z,42.66
2023-09-02T16:06:46.356Z,42.86
2023-09-02T16:09:14.650Z,43.54
2023-09-02T16:11:42.821Z,44.17
2023-09-02T16:14:10.952Z,44.55
2023-09-02T16:16:38.906Z,44.95
2023-09-02T16:19:07.744Z,45.05
2023-09-02T16:21:36.817Z,45.63
2023-09-02T16:24:05.955Z,46.01
2023-09-02T16:26:34.461Z,46.94
2023-09-02T16:29:02.734Z,47.82
2023-09-02T16:31:30.912Z,48.10
2023-09-02T16:33:59.270Z,48.28
2023-09-02T16:36:27.662Z,49.07
2023-09-02T16:38:56.833Z,49.11
2023-09-02T16:41:25.728Z,49.61
2023-09-02T16:44:04.573Z,50.18
2023-09-02T16:46:34.089Z,50.34
2023-09-02T16:49:02.360Z,50.63
2023-09-02T16:51:31.319Z,51.49
2023-09-02T16:54:02.282Z,52.20
2023-09-02T16:56:31.984Z,52.66
2023-09-02T16:59:00.974Z,53.19
2023-09-02T17:01:29.477Z,53.74
2023-09-02T17:03:58.019Z,54.69
2023-09-02T17:06:33.949Z,57.10
2023-09-02T17:09:03.849Z,57.31
2023-09-02T17:11:32.241Z,58.11
2023-09-02T17:14:00.585Z,58.40
2023-09-02T17:16:28.977Z,58.08
2023-09-02T17:18:57.263Z,58.42
2023-09-02T17:21:26.156Z,58.34
2023-09-02T17:23:54.428Z,59.10
2023-09-02T17:26:25.231Z,58.79
2023-09-02T17:28:53.715Z,60.90
2023-09-02T17:31:24.000Z,62.19
2023-09-02T17:33:52.201Z,64.35
2023-09-02T17:36:20.587Z,64.79
2023-09-02T17:38:48.884Z,66.87
2023-09-02T17:41:17.617Z,68.66
2023-09-02T17:43:45.429Z,69.90
2023-09-02T17:46:14.503Z,72.21
2023-09-02T17:48:43.165Z,70.75
2023-09-02T17:51:11.890Z,70.70
2023-09-02T17:53:40.369Z,69.26
2023-09-02T17:56:08.219Z,67.97
2023-09-02T17:58:36.243Z,71.84
2023-09-02T18:01:04.481Z,73.64
2023-09-02T18:03:33.174Z,71.38
2023-09-02T18:06:01.508Z,73.46
2023-09-02T18:08:46.739Z,72.21
2023-09-02T18:11:18.440Z,71.08
2023-09-02T18:13:47.077Z,73.11
2023-09-02T18:16:15.432Z,71.70
2023-09-02T18:18:45.658Z,70.86
2023-09-02T18:21:14.077Z,72.53
2023-09-02T18:23:42.397Z,71.16
2023-09-02T18:26:10.832Z,70.47
2023-09-02T18:28:39.812Z,71.06
2023-09-02T18:31:08.261Z,71.21
2023-09-02T18:33:36.427Z,72.50
2023-09-02T18:36:04.618Z,74.47
2023-09-02T18:38:32.870Z,74.51
2023-09-02T18:41:01.009Z,74.22
2023-09-02T18:43:29.582Z,74.40
2023-09-02T18:46:03.960Z,74.12
2023-09-02T18:48:32.697Z,75.56
2023-09-02T18:51:00.696Z,77.49
2023-09-02T18:53:28.754Z,77.15
2023-09-02T18:55:56.854Z,79.46
2023-09-02T18:58:25.652Z,83.30
2023-09-02T19:00:53.929Z,86.42
2023-09-02T19:03:22.481Z,87.74
2023-09-02T19:05:51.871Z,88.73
2023-09-02T19:08:20.311Z,89.36
2023-09-02T19:10:48.983Z,92.26
2023-09-02T19:13:17.670Z,95.69
2023-09-02T19:15:45.952Z,98.49
2023-09-02T19:18:14.447Z,100.00
2023-09-02T19:20:43.281Z,100.00
2023-09-02T19:23:11.633Z,100.00
2023-09-02T19:25:40.224Z,100.00
2023-09-02T19:28:08.808Z,100.00
2023-09-02T19:30:37.088Z,100.00
2023-09-02T19:33:05.343Z,100.00
2023-09-02T19:35:33.740Z,100.00
2023-09-02T19:38:03.172Z,100.00
2023-09-02T19:40:31.970Z,100.00
2023-09-02T19:43:00.607Z,100.00
2023-09-02T19:45:29.442Z,100.00
2023-09-02T19:47:57.493Z,100.00
2023-09-02T19:50:25.945Z,100.00
2023-09-02T19:52:54.224Z,100.00
2023-09-02T19:55:22.645Z,100.00
2023-09-02T19:57:50.846Z,100.00
2023-09-02T20:00:19.725Z,100.00
2023-09-02T20:02:50.558Z,100.00
2023-09-02T20:05:18.745Z,100.00
2023-09-02T20:07:47.406Z,100.00
2023-09-02T20:10:18.429Z,100.00
2023-09-02T20:12:47.630Z,100.00
2023-09-02T20:15:17.077Z,100.00
2023-09-02T20:17:46.409Z,100.00
2023-09-02T20:20:14.763Z,100.00
2023-09-02T20:22:43.354Z,100.00
2023-09-02T20:25:11.998Z,100.00
2023-09-02T20:27:40.146Z,100.00
2023-09-02T20:30:08.628Z,100.00
2023-09-02T20:32:37.216Z,100.00
2023-09-02T20:35:06.030Z,100.00
2023-09-02T20:37:34.357Z,100.00
2023-09-02T20:40:02.830Z,100.00
2023-09-02T20:42:31.305Z,100.00
2023-09-02T20:44:59.397Z,100.00
2023-09-02T20:47:27.571Z,100.00
2023-09-02T20:49:55.838Z,100.00
2023-09-02T20:52:24.498Z,100.00
2023-09-02T20:54:56.408Z,100.00
2023-09-02T20:57:24.661Z,100.00
2023-09-02T20:59:57.628Z,100.00
2023-09-02T21:02:28.047Z,100.00
2023-09-02T21:04:58.601Z,100.00
2023-09-02T21:07:26.582Z,100.00
2023-09-02T21:09:56.970Z,100.00
2023-09-02T21:12:29.380Z,100.00
2023-09-02T21:14:59.292Z,100.00
2023-09-02T21:17:27.600Z,100.00
2023-09-02T21:19:56.045Z,100.00
2023-09-02T21:22:24.207Z,100.00
2023-09-02T21:24:52.652Z,100.00
2023-09-02T21:27:20.827Z,100.00
2023-09-02T21:29:53.547Z,100.00
2023-09-02T21:32:21.255Z,100.00
2023-09-02T21:34:49.654Z,100.00
2023-09-02T21:37:17.839Z,100.00
2023-09-02T21:39:46.008Z,100.00
2023-09-02T21:42:14.652Z,100.00
2023-09-02T21:44:43.192Z,100.00
2023-09-02T21:47:11.726Z,100.00
2023-09-02T21:49:39.912Z,100.00
2023-09-02T21:52:08.490Z,100.00
2023-09-02T21:54:36.834Z,100.00
2023-09-02T21:57:05.362Z,100.00
2023-09-02T21:59:33.715Z,100.00
2023-09-02T22:02:01.831Z,100.00
2023-09-02T22:04:33.057Z,100.00
2023-09-02T22:07:01.661Z,100.00
2023-09-02T22:09:30.261Z,100.00
2023-09-02T22:11:58.210Z,100.00
2023-09-02T22:14:26.718Z,100.00
2023-09-02T22:16:55.453Z,100.00
2023-09-02T22:19:23.506Z,100.00
2023-09-02T22:21:52.389Z,100.00
2023-09-02T22:24:20.135Z,100.00
2023-09-02T22:26:48.437Z,100.00
2023-09-02T22:29:16.712Z,100.00
2023-09-02T22:31:45.018Z,100.00
2023-09-02T22:34:13.377Z,100.00
2023-09-02T22:36:41.671Z,100.00
2023-09-02T22:39:12.418Z,100.00
2023-09-02T22:41:43.842Z,100.00
2023-09-02T22:44:12.594Z,100.00
2023-09-02T22:46:41.181Z,100.00
2023-09-02T22:49:23.410Z,100.00
2023-09-02T22:52:19.345Z,100.00
2023-09-02T22:54:47.429Z,100.00
2023-09-02T22:57:15.873Z,100.00
2023-09-02T22:59:44.212Z,100.00
2023-09-02T23:02:12.788Z,100.00
2023-09-02T23:04:41.839Z,100.00
2023-09-02T23:07:10.525Z,100.00
2023-09-02T23:09:44.651Z,100.00
2023-09-02T23:12:12.909Z,100.00
2023-09-02T23:14:40.749Z,100.00
2023-09-02T23:17:09.307Z,100.00
2023-09-02T23:19:37.702Z,100.00
2023-09-02T23:22:06.698Z,100.00
2023-09-02T23:24:34.878Z,100.00
2023-09-02T23:27:02.791Z,100.00
2023-09-02T23:29:31.155Z,100.00
2023-09-02T23:31:59.581Z,100.00
2023-09-02T23:34:28.134Z,100.00
2023-09-02T23:36:55.717Z,100.00
2023-09-02T23:39:24.376Z,100.00
2023-09-02T23:41:52.149Z,100.00
2023-09-02T23:44:20.141Z,100.00
2023-09-02T23:46:47.827Z,100.00
2023-09-02T23:49:17.591Z,100.00
2023-09-02T23:51:46.025Z,100.00
2023-09-02T23:54:14.694Z,100.00
2023-09-02T23:56:43.289Z,100.00
2023-09-02T23:59:11.829Z,100.00
